Airport ID:KMHV
Update Time (UTC):16/02/2019 06:25
Wind Speed (Knots):12
Wind Direction (Magnetic):240
Temperature (°C):4
Dew Point (°C):2
Humidity (%):86
Altimeter (inHg):30
Density Altitude (Feet):
Visibility (Miles):6
Clouds (Hundreds of feet):BKN014 BKN026 OVC033
Present Weather:BR
METAR:METAR KMHV 160620Z AUTO 27013G18KT 5SM BR SCT015 BKN026 OVC033 04/02 A3000 RMK A01

The data displayed is for advisory purposes only and is not to be used for flight planning or operations.

This page is not automatically refreshed. Reload the page to see current data.